Back to Top

Language: 

My Weather Underground Personal Weather Station Historical Data with Graphs...

Delerius Weather Station Historical Data
Daily Summary for March 15, 2017 Units:  Metric    English   Both
« Previous Day
Next Day »
Daily Weekly Monthly Yearly Custom
  High: Low: Average:
Temperature: 16.5 °C 7.6 °C 11.4 °C
Dew Point: 7.8 °C 3.9 °C 5.8 °C
Humidity: 84 % 51 % 69 %
Wind Speed: 16.1 km/h 0 km/h 7.2 km/h
Wind Gust: 32.2 km/h - -
Wind:- - West
Pressure: 1032.4 hPa 1025.6 hPa -
Precipitation: 0 mm    
Historical Graphs
 
 
Tabular Data for March 15, 2017
Time Temperature Dew Point Pressure Wind Wind Speed Wind Gust Humidity Rainfall Rate (Hourly) solar Conditions
00:04 10 °C 5.9 °C 1031 hPa West 14.5 km/h 25.7 km/h 76 % 0 mm 0 W/m2
00:09 9.9 °C 5.9 °C 1031.4 hPa West 14.5 km/h 25.7 km/h 76 % 0 mm 0 W/m2
00:14 9.9 °C 5.7 °C 1031 hPa West 14.5 km/h 22.5 km/h 75 % 0 mm 0 W/m2
00:19 9.9 °C 5.7 °C 1031 hPa West 12.9 km/h 22.5 km/h 75 % 0 mm 0 W/m2
00:24 9.9 °C 5.5 °C 1031.4 hPa WNW 11.3 km/h 19.3 km/h 74 % 0 mm 0 W/m2
00:29 9.9 °C 5.5 °C 1031.4 hPa WNW 11.3 km/h 19.3 km/h 74 % 0 mm 0 W/m2
00:34 9.8 °C 5.2 °C 1031.4 hPa WNW 12.9 km/h 20.9 km/h 73 % 0 mm 0 W/m2
00:39 9.8 °C 5.2 °C 1031.4 hPa WNW 14.5 km/h 20.9 km/h 73 % 0 mm 0 W/m2
00:44 9.8 °C 5.2 °C 1031.4 hPa WNW 14.5 km/h 20.9 km/h 73 % 0 mm 0 W/m2
00:49 9.8 °C 5.2 °C 1031.4 hPa WNW 14.5 km/h 25.7 km/h 73 % 0 mm 0 W/m2
00:54 9.8 °C 5.2 °C 1031.4 hPa WNW 16.1 km/h 29 km/h 73 % 0 mm 0 W/m2
00:59 9.8 °C 5.2 °C 1031.4 hPa WNW 16.1 km/h 32.2 km/h 73 % 0 mm 0 W/m2
01:04 9.8 °C 5.4 °C 1031.4 hPa WNW 14.5 km/h 32.2 km/h 74 % 0 mm 0 W/m2
01:09 9.8 °C 5.4 °C 1031.7 hPa WNW 12.9 km/h 24.1 km/h 74 % 0 mm 0 W/m2
01:14 9.7 °C 5.3 °C 1031.4 hPa WNW 12.9 km/h 24.1 km/h 74 % 0 mm 0 W/m2
01:19 9.7 °C 5.3 °C 1031.4 hPa WNW 12.9 km/h 25.7 km/h 74 % 0 mm 0 W/m2
01:24 9.6 °C 5.2 °C 1031.7 hPa WNW 14.5 km/h 29 km/h 74 % 0 mm 0 W/m2
01:29 9.6 °C 5.2 °C 1031.7 hPa WNW 12.9 km/h 29 km/h 74 % 0 mm 0 W/m2
01:34 9.5 °C 4.9 °C 1031.4 hPa WNW 11.3 km/h 19.3 km/h 73 % 0 mm 0 W/m2
01:39 9.5 °C 4.9 °C 1031.7 hPa WNW 14.5 km/h 29 km/h 73 % 0 mm 0 W/m2
01:44 9.5 °C 4.9 °C 1031.7 hPa WNW 12.9 km/h 29 km/h 73 % 0 mm 0 W/m2
01:49 9.4 °C 4.8 °C 1031.4 hPa WNW 9.7 km/h 22.5 km/h 73 % 0 mm 0 W/m2
01:54 9.4 °C 4.8 °C 1031.4 hPa WNW 9.7 km/h 19.3 km/h 73 % 0 mm 0 W/m2
01:59 9.3 °C 4.5 °C 1031.4 hPa WNW 9.7 km/h 17.7 km/h 72 % 0 mm 0 W/m2
02:04 9.3 °C 4.5 °C 1031.4 hPa WNW 9.7 km/h 16.1 km/h 72 % 0 mm 0 W/m2
02:05 9.3 °C 4.5 °C 1031.4 hPa WNW 8 km/h 16.1 km/h 72 % 0 mm 0 W/m2
02:10 9.2 °C 4.4 °C 1031.4 hPa WNW 8 km/h 16.1 km/h 72 % 0 mm 0 W/m2
02:15 9.2 °C 4.4 °C 1031.4 hPa WNW 6.4 km/h 14.5 km/h 72 % 0 mm 0 W/m2
02:20 9.2 °C 4.4 °C 1031.4 hPa WNW 6.4 km/h 16.1 km/h 72 % 0 mm 0 W/m2
02:25 9.1 °C 4.3 °C 1031.4 hPa WNW 3.2 km/h 16.1 km/h 72 % 0 mm 0 W/m2
02:30 9.1 °C 4.3 °C 1031.4 hPa WNW 4.8 km/h 12.9 km/h 72 % 0 mm 0 W/m2
02:35 9.1 °C 4.3 °C 1031.4 hPa WNW 8 km/h 19.3 km/h 72 % 0 mm 0 W/m2
02:40 9.1 °C 4.3 °C 1031.4 hPa WNW 8 km/h 19.3 km/h 72 % 0 mm 0 W/m2
02:45 9 °C 4.4 °C 1031.4 hPa NW 4.8 km/h 19.3 km/h 73 % 0 mm 0 W/m2
02:50 8.9 °C 4.3 °C 1031.4 hPa NW 1.6 km/h 6.4 km/h 73 % 0 mm 0 W/m2
02:55 8.9 °C 4.3 °C 1031.4 hPa Calm   3.2 km/h 73 % 0 mm 0 W/m2
03:00 8.8 °C 4.4 °C 1031.4 hPa NW 1.6 km/h 9.7 km/h 74 % 0 mm 0 W/m2
03:05 8.7 °C 4.3 °C 1031.4 hPa NW 3.2 km/h 12.9 km/h 74 % 0 mm 0 W/m2
03:10 8.7 °C 4.3 °C 1031.4 hPa NW 3.2 km/h 12.9 km/h 74 % 0 mm 0 W/m2
03:15 8.6 °C 4.4 °C 1031.7 hPa NW 1.6 km/h 12.9 km/h 75 % 0 mm 0 W/m2
03:20 8.5 °C 4.3 °C 1031.7 hPa NW 1.6 km/h 8 km/h 75 % 0 mm 0 W/m2
03:25 8.4 °C 4.2 °C 1031.7 hPa NW 1.6 km/h 8 km/h 75 % 0 mm 0 W/m2
03:30 8.3 °C 4.1 °C 1031.7 hPa NW 1.6 km/h 6.4 km/h 75 % 0 mm 0 W/m2
03:31 8.3 °C 4.1 °C 1031.7 hPa NW 1.6 km/h 6.4 km/h 75 % 0 mm 0 W/m2
03:36 8.3 °C 4.3 °C 1031.7 hPa NW 1.6 km/h 6.4 km/h 76 % 0 mm 0 W/m2
03:41 8.2 °C 4.2 °C 1031.7 hPa NNW 1.6 km/h 9.7 km/h 76 % 0 mm 0 W/m2
03:46 8.1 °C 4.1 °C 1031.7 hPa NNW 1.6 km/h 9.7 km/h 76 % 0 mm 0 W/m2
03:51 8.1 °C 4.1 °C 1031.7 hPa Calm   3.2 km/h 76 % 0 mm 0 W/m2
03:56 8 °C 4 °C 1031.7 hPa NW 1.6 km/h 11.3 km/h 76 % 0 mm 0 W/m2
04:01 7.9 °C 3.9 °C 1031.7 hPa NW 3.2 km/h 11.3 km/h 76 % 0 mm 0 W/m2
04:06 7.9 °C 3.9 °C 1031.7 hPa WNW 1.6 km/h 6.4 km/h 76 % 0 mm 0 W/m2
04:11 7.8 °C 4 °C 1031.7 hPa WNW 1.6 km/h 8 km/h 77 % 0 mm 0 W/m2
04:16 7.7 °C 3.9 °C 1031.7 hPa Calm   8 km/h 77 % 0 mm 0 W/m2
04:21 7.6 °C 4 °C 1031.7 hPa WNW 1.6 km/h 11.3 km/h 78 % 0 mm 0 W/m2
04:26 7.6 °C 4 °C 1031.7 hPa WNW 3.2 km/h 12.9 km/h 78 % 0 mm 0 W/m2
04:31 7.7 °C 4.1 °C 1031.7 hPa WNW 4.8 km/h 12.9 km/h 78 % 0 mm 0 W/m2
04:36 7.7 °C 4.1 °C 1031.7 hPa West 6.4 km/h 9.7 km/h 78 % 0 mm 0 W/m2
04:41 7.7 °C 4.1 °C 1031.7 hPa West 6.4 km/h 11.3 km/h 78 % 0 mm 0 W/m2
04:46 7.6 °C 4 °C 1031.7 hPa WNW 8 km/h 12.9 km/h 78 % 0 mm 0 W/m2
04:51 7.6 °C 4 °C 1031.7 hPa WNW 9.7 km/h 12.9 km/h 78 % 0 mm 0 W/m2
04:56 7.6 °C 4 °C 1031.7 hPa WNW 11.3 km/h 14.5 km/h 78 % 0 mm 0 W/m2
05:01 7.6 °C 4 °C 1031.7 hPa WNW 11.3 km/h 16.1 km/h 78 % 0 mm 0 W/m2
05:02 7.6 °C 4 °C 1031.7 hPa WNW 11.3 km/h 16.1 km/h 78 % 0 mm 0 W/m2
05:07 7.6 °C 4 °C 1031.7 hPa NW 11.3 km/h 17.7 km/h 78 % 0 mm 0 W/m2
05:12 7.6 °C 4 °C 1031.7 hPa NW 11.3 km/h 17.7 km/h 78 % 0 mm 0 W/m2
05:17 7.7 °C 4.1 °C 1031.7 hPa WNW 11.3 km/h 17.7 km/h 78 % 0 mm 0 W/m2
05:22 7.7 °C 4.1 °C 1031.7 hPa WNW 11.3 km/h 17.7 km/h 78 % 0 mm 0 W/m2
05:27 7.8 °C 4 °C 1031.7 hPa WNW 11.3 km/h 19.3 km/h 77 % 0 mm 0 W/m2
05:32 7.8 °C 4 °C 1031.7 hPa West 9.7 km/h 19.3 km/h 77 % 0 mm 0 W/m2
05:37 7.8 °C 4 °C 1031.7 hPa WSW 8 km/h 19.3 km/h 77 % 0 mm 0 W/m2
05:42 7.8 °C 4 °C 1031.7 hPa SW 6.4 km/h 11.3 km/h 77 % 0 mm 0 W/m2
05:47 7.8 °C 4 °C 1031.7 hPa SW 4.8 km/h 11.3 km/h 77 % 0 mm 0 W/m2
05:52 7.9 °C 4.1 °C 1031.7 hPa SSW 6.4 km/h 12.9 km/h 77 % 0 mm 0 W/m2
05:57 8 °C 4 °C 1031.7 hPa SW 8 km/h 16.1 km/h 76 % 0 mm 0 W/m2
06:02 8 °C 4.2 °C 1031.7 hPa SW 8 km/h 16.1 km/h 77 % 0 mm 0 W/m2
06:07 8.1 °C 4.3 °C 1032.1 hPa WSW 6.4 km/h 14.5 km/h 77 % 0 mm 0 W/m2
06:12 8 °C 4.2 °C 1031.7 hPa West 6.4 km/h 14.5 km/h 77 % 0 mm 0 W/m2
06:17 8 °C 4.2 °C 1032.1 hPa West 6.4 km/h 14.5 km/h 77 % 0 mm 0 W/m2
06:22 8 °C 4.2 °C 1032.1 hPa West 4.8 km/h 12.9 km/h 77 % 0 mm 0 W/m2
06:27 7.9 °C 4.1 °C 1032.1 hPa West 1.6 km/h 9.7 km/h 77 % 0 mm 0 W/m2
06:32 7.9 °C 4.3 °C 1032.1 hPa WSW 1.6 km/h 9.7 km/h 78 % 0 mm 5 W/m2
06:37 7.9 °C 4.3 °C 1032.1 hPa SW 1.6 km/h 9.7 km/h 78 % 0 mm 7 W/m2
06:42 7.9 °C 4.3 °C 1032.1 hPa SW 3.2 km/h 8 km/h 78 % 0 mm 11 W/m2
06:47 7.8 °C 4.2 °C 1032.1 hPa WSW 3.2 km/h 8 km/h 78 % 0 mm 14 W/m2
06:52 7.8 °C 4.4 °C 1032.4 hPa West 4.8 km/h 9.7 km/h 79 % 0 mm 18 W/m2
06:58 7.8 °C 4.4 °C 1032.4 hPa West 4.8 km/h 9.7 km/h 79 % 0 mm 23 W/m2
07:03 7.8 °C 4.4 °C 1032.4 hPa West 4.8 km/h 9.7 km/h 79 % 0 mm 26 W/m2
07:08 7.8 °C 4.4 °C 1032.4 hPa West 1.6 km/h 8 km/h 79 % 0 mm 35 W/m2
07:13 7.8 °C 4.6 °C 1032.4 hPa Calm   3.2 km/h 80 % 0 mm 39 W/m2
07:18 7.8 °C 4.6 °C 1032.4 hPa Calm   6.4 km/h 80 % 0 mm 42 W/m2
07:23 7.9 °C 4.7 °C 1032.4 hPa South 1.6 km/h 6.4 km/h 80 % 0 mm 51 W/m2
07:28 7.9 °C 4.7 °C 1032.4 hPa Calm   1.6 km/h 80 % 0 mm 65 W/m2
07:33 7.9 °C 4.7 °C 1032.4 hPa Calm   3.2 km/h 80 % 0 mm 76 W/m2
07:38 8 °C 4.8 °C 1032.4 hPa Calm   3.2 km/h 80 % 0 mm 91 W/m2
07:43 8.1 °C 4.8 °C 1032.4 hPa Calm   3.2 km/h 80 % 0 mm 120 W/m2
07:48 8.1 °C 4.8 °C 1032.4 hPa Calm   4.8 km/h 80 % 0 mm 128 W/m2
07:53 8.3 °C 5.1 °C 1032.4 hPa ENE 1.6 km/h 9.7 km/h 80 % 0 mm 137 W/m2
07:58 8.4 °C 5.2 °C 1032.4 hPa WSW 4.8 km/h 9.7 km/h 80 % 0 mm 118 W/m2
08:03 8.6 °C 5.2 °C 1032.4 hPa WSW 4.8 km/h 9.7 km/h 79 % 0 mm 111 W/m2
08:08 8.7 °C 5.3 °C 1032.4 hPa WSW 3.2 km/h 8 km/h 79 % 0 mm 162 W/m2
08:13 8.8 °C 5.2 °C 1032.4 hPa WSW 1.6 km/h 8 km/h 78 % 0 mm 295 W/m2
08:18 9.1 °C 5.4 °C 1032.1 hPa SW 4.8 km/h 9.7 km/h 78 % 0 mm 294 W/m2
08:23 9.4 °C 5 °C 1032.1 hPa SW 6.4 km/h 16.1 km/h 74 % 0 mm 281 W/m2
08:28 9.7 °C 4.9 °C 1032.1 hPa SW 8 km/h 16.1 km/h 72 % 0 mm 169 W/m2
08:33 9.8 °C 4.8 °C 1032.4 hPa SW 6.4 km/h 12.9 km/h 71 % 0 mm 160 W/m2
08:38 10 °C 5 °C 1032.4 hPa SSW 3.2 km/h 11.3 km/h 71 % 0 mm 167 W/m2
08:43 10.1 °C 4.7 °C 1032.4 hPa South 1.6 km/h 6.4 km/h 69 % 0 mm 202 W/m2
08:48 10.2 °C 4.8 °C 1032.4 hPa SW 3.2 km/h 9.7 km/h 69 % 0 mm 199 W/m2
08:53 10.3 °C 4.7 °C 1032.4 hPa WSW 4.8 km/h 11.3 km/h 68 % 0 mm 144 W/m2
08:58 10.3 °C 4.8 °C 1032.4 hPa WSW 4.8 km/h 11.3 km/h 69 % 0 mm 190 W/m2
09:03 10.5 °C 5.1 °C 1032.4 hPa WSW 3.2 km/h 9.7 km/h 69 % 0 mm 408 W/m2
09:08 10.8 °C 5.1 °C 1032.4 hPa West 3.2 km/h 9.7 km/h 68 % 0 mm 417 W/m2
09:13 11.2 °C 5.3 °C 1032.4 hPa West 3.2 km/h 8 km/h 67 % 0 mm 476 W/m2
09:18 11.5 °C 5.4 °C 1032.1 hPa WSW 4.8 km/h 9.7 km/h 66 % 0 mm 543 W/m2
09:23 11.7 °C 5.3 °C 1032.4 hPa SW 4.8 km/h 9.7 km/h 65 % 0 mm 366 W/m2
09:28 11.8 °C 5.2 °C 1032.4 hPa SSW 3.2 km/h 8 km/h 64 % 0 mm 179 W/m2
09:33 11.8 °C 5 °C 1032.4 hPa SSW 1.6 km/h 8 km/h 63 % 0 mm 239 W/m2
09:38 11.8 °C 5.2 °C 1032.4 hPa SSW 1.6 km/h 8 km/h 64 % 0 mm 413 W/m2
09:43 11.8 °C 5.2 °C 1032.4 hPa SSW 4.8 km/h 9.7 km/h 64 % 0 mm 227 W/m2
09:48 11.7 °C 5.1 °C 1032.4 hPa SSW 4.8 km/h 9.7 km/h 64 % 0 mm 236 W/m2
09:53 11.6 °C 5.2 °C 1032.4 hPa South 4.8 km/h 9.7 km/h 65 % 0 mm 220 W/m2
09:58 11.6 °C 5.2 °C 1032.4 hPa South 3.2 km/h 9.7 km/h 65 % 0 mm 207 W/m2
10:03 11.7 °C 5.3 °C 1032.4 hPa South 1.6 km/h 6.4 km/h 65 % 0 mm 251 W/m2
10:08 11.8 °C 5.4 °C 1032.4 hPa South 1.6 km/h 6.4 km/h 65 % 0 mm 197 W/m2
10:13 11.9 °C 5.3 °C 1032.4 hPa SSE 1.6 km/h 8 km/h 64 % 0 mm 225 W/m2
10:18 12 °C 5.6 °C 1032.4 hPa South 1.6 km/h 8 km/h 65 % 0 mm 424 W/m2
10:23 12.3 °C 5.7 °C 1032.4 hPa WSW 3.2 km/h 9.7 km/h 64 % 0 mm 543 W/m2
10:28 12.7 °C 5.8 °C 1032.1 hPa WNW 4.8 km/h 11.3 km/h 63 % 0 mm 501 W/m2
10:33 13.1 °C 6.2 °C 1032.4 hPa WSW 6.4 km/h 16.1 km/h 63 % 0 mm 501 W/m2
10:38 13.1 °C 6 °C 1032.1 hPa South 6.4 km/h 16.1 km/h 62 % 0 mm 510 W/m2
10:43 13.2 °C 5.6 °C 1032.1 hPa SW 4.8 km/h 11.3 km/h 60 % 0 mm 563 W/m2
10:49 13.3 °C 5.4 °C 1032.1 hPa West 6.4 km/h 17.7 km/h 59 % 0 mm 561 W/m2
10:54 13.6 °C 6.2 °C 1032.1 hPa West 8 km/h 17.7 km/h 61 % 0 mm 580 W/m2
10:59 14 °C 6.1 °C 1032.1 hPa WNW 9.7 km/h 19.3 km/h 59 % 0 mm 564 W/m2
11:03 14.2 °C 5.8 °C 1032.1 hPa WNW 11.3 km/h 19.3 km/h 57 % 0 mm 559 W/m2
11:09 14.2 °C 6.1 °C 1032.1 hPa WNW 11.3 km/h 20.9 km/h 58 % 0 mm 564 W/m2
11:14 14.3 °C 5.9 °C 1032.1 hPa WNW 11.3 km/h 20.9 km/h 57 % 0 mm 561 W/m2
11:19 14.3 °C 5.4 °C 1032.1 hPa West 12.9 km/h 20.9 km/h 55 % 0 mm 585 W/m2
11:24 14.4 °C 6 °C 1032.1 hPa West 12.9 km/h 20.9 km/h 57 % 0 mm 610 W/m2
11:29 14.6 °C 5.7 °C 1032.1 hPa WNW 9.7 km/h 17.7 km/h 55 % 0 mm 596 W/m2
11:34 14.7 °C 6 °C 1032.1 hPa WNW 11.3 km/h 24.1 km/h 56 % 0 mm 605 W/m2
11:39 14.8 °C 6.1 °C 1031.7 hPa WNW 12.9 km/h 24.1 km/h 56 % 0 mm 643 W/m2
11:43 14.8 °C 5.6 °C 1031.7 hPa WNW 11.3 km/h -1607.7 km/h 54 % 0 mm 634 W/m2
11:44 15.1 °C 6.1 °C 1031.7 hPa WNW 11.3 km/h 19.3 km/h 55 % 0 mm 666 W/m2
11:48 14.8 °C 5.6 °C 1031.7 hPa WNW 11.3 km/h -1607.7 km/h 54 % 0 mm 634 W/m2
11:49 15.1 °C 5.6 °C 1031.7 hPa WNW 11.3 km/h 19.3 km/h 53 % 0 mm 628 W/m2
11:53 15.2 °C 5.2 °C 1031.4 hPa West 12.9 km/h -1607.7 km/h 51 % 0 mm 640 W/m2
11:54 15.2 °C 5.9 °C 1031.7 hPa West 12.9 km/h 19.3 km/h 54 % 0 mm 643 W/m2
11:58 15.2 °C 5.2 °C 1031.4 hPa West 12.9 km/h -1607.7 km/h 51 % 0 mm 640 W/m2
11:59 15.3 °C 5.2 °C 1031.7 hPa West 12.9 km/h 24.1 km/h 51 % 0 mm 638 W/m2
12:03 15.2 °C 5.2 °C 1031.4 hPa West 12.9 km/h -1607.7 km/h 51 % 0 mm 640 W/m2
12:04 15.3 °C 5.2 °C 1031.4 hPa West 12.9 km/h 24.1 km/h 51 % 0 mm 619 W/m2
12:08 15.4 °C 5.6 °C 1031.4 hPa WNW 14.5 km/h -1607.7 km/h 52 % 0 mm 622 W/m2
12:13 15.4 °C 5.6 °C 1031.4 hPa WNW 14.5 km/h -1607.7 km/h 52 % 0 mm 622 W/m2
12:18 15.4 °C 5.6 °C 1031.4 hPa WNW 14.5 km/h -1607.7 km/h 52 % 0 mm 622 W/m2
12:23 15.7 °C 5.8 °C 1031 hPa WNW 16.1 km/h -1607.7 km/h 52 % 0 mm 641 W/m2
12:28 15.7 °C 5.8 °C 1031 hPa WNW 16.1 km/h -1607.7 km/h 52 % 0 mm 641 W/m2
12:33 15.7 °C 5.8 °C 1031 hPa WNW 16.1 km/h -1607.7 km/h 52 % 0 mm 641 W/m2
12:38 15.8 °C 5.9 °C 1030.7 hPa WNW 16.1 km/h -1607.7 km/h 52 % 0 mm 608 W/m2
12:43 15.8 °C 5.9 °C 1030.7 hPa WNW 16.1 km/h -1607.7 km/h 52 % 0 mm 608 W/m2
12:48 15.8 °C 5.9 °C 1030.7 hPa WNW 16.1 km/h -1607.7 km/h 52 % 0 mm 608 W/m2
12:53 15.8 °C 6.2 °C 1030.7 hPa WNW 14.5 km/h -1607.7 km/h 53 % 0 mm 600 W/m2
12:58 15.8 °C 6.2 °C 1030.7 hPa WNW 14.5 km/h -1607.7 km/h 53 % 0 mm 600 W/m2
13:03 15.8 °C 6.2 °C 1030.7 hPa WNW 14.5 km/h -1607.7 km/h 53 % 0 mm 600 W/m2
13:08 15.8 °C 6.3 °C 1030.4 hPa WNW 11.3 km/h -1607.7 km/h 53 % 0 mm 573 W/m2
13:13 15.8 °C 6.3 °C 1030.4 hPa WNW 11.3 km/h -1607.7 km/h 53 % 0 mm 573 W/m2
13:18 15.8 °C 6.3 °C 1030.4 hPa WNW 11.3 km/h -1607.7 km/h 53 % 0 mm 573 W/m2
13:23 16.1 °C 6.4 °C 1030.4 hPa NW 11.3 km/h -1607.7 km/h 53 % 0 mm 556 W/m2
13:28 16.1 °C 6.4 °C 1030.4 hPa NW 11.3 km/h -1607.7 km/h 53 % 0 mm 556 W/m2
13:33 16.1 °C 6.4 °C 1030.4 hPa NW 11.3 km/h -1607.7 km/h 53 % 0 mm 556 W/m2
13:38 16.1 °C 6.2 °C 1030 hPa NW 11.3 km/h -1607.7 km/h 52 % 0 mm 529 W/m2
13:43 16.1 °C 6.2 °C 1030 hPa NW 11.3 km/h -1607.7 km/h 52 % 0 mm 529 W/m2
13:48 16.1 °C 6.2 °C 1030 hPa NW 11.3 km/h -1607.7 km/h 52 % 0 mm 529 W/m2
13:53 16.3 °C 6.7 °C 1030 hPa NW 12.9 km/h -1607.7 km/h 53 % 0 mm 505 W/m2
13:58 16.3 °C 6.7 °C 1030 hPa NW 12.9 km/h -1607.7 km/h 53 % 0 mm 505 W/m2
14:03 16.3 °C 6.7 °C 1030 hPa NW 12.9 km/h -1607.7 km/h 53 % 0 mm 505 W/m2
14:08 16.5 °C 6.6 °C 1030 hPa WNW 14.5 km/h -1607.7 km/h 52 % 0 mm 491 W/m2
14:13 16.5 °C 6.6 °C 1030 hPa WNW 14.5 km/h -1607.7 km/h 52 % 0 mm 491 W/m2
14:18 16.5 °C 6.6 °C 1030 hPa WNW 14.5 km/h -1607.7 km/h 52 % 0 mm 491 W/m2
14:23 16.4 °C 7.3 °C 1029.7 hPa WNW 14.5 km/h -1607.7 km/h 55 % 0 mm 458 W/m2
14:28 16.4 °C 7.3 °C 1029.7 hPa WNW 14.5 km/h -1607.7 km/h 55 % 0 mm 458 W/m2
14:33 16.4 °C 7.3 °C 1029.7 hPa WNW 14.5 km/h -1607.7 km/h 55 % 0 mm 458 W/m2
14:38 16.3 °C 7 °C 1029.7 hPa WNW 16.1 km/h -1607.7 km/h 54 % 0 mm 445 W/m2
14:43 16.3 °C 7 °C 1029.7 hPa WNW 16.1 km/h -1607.7 km/h 54 % 0 mm 445 W/m2
14:48 16.3 °C 7 °C 1029.7 hPa WNW 16.1 km/h -1607.7 km/h 54 % 0 mm 445 W/m2
14:53 16.2 °C 6.9 °C 1029.7 hPa West 14.5 km/h -1607.7 km/h 54 % 0 mm 437 W/m2
14:58 16.2 °C 6.9 °C 1029.7 hPa West 14.5 km/h -1607.7 km/h 54 % 0 mm 437 W/m2
15:03 16.2 °C 6.9 °C 1029.7 hPa West 14.5 km/h -1607.7 km/h 54 % 0 mm 437 W/m2
15:08 16.2 °C 7.1 °C 1029.7 hPa West 14.5 km/h -1607.7 km/h 55 % 0 mm 402 W/m2
15:13 16.2 °C 7.1 °C 1029.7 hPa West 14.5 km/h -1607.7 km/h 55 % 0 mm 402 W/m2
15:18 16.2 °C 7.1 °C 1029.7 hPa West 14.5 km/h -1607.7 km/h 55 % 0 mm 402 W/m2
15:23 16.4 °C 7.1 °C 1029.3 hPa West 16.1 km/h -1607.7 km/h 54 % 0 mm 371 W/m2
15:28 16.4 °C 7.1 °C 1029.3 hPa West 16.1 km/h -1607.7 km/h 54 % 0 mm 371 W/m2
15:33 16.4 °C 7.1 °C 1029.3 hPa West 16.1 km/h -1607.7 km/h 54 % 0 mm 371 W/m2
15:38 16.5 °C 7.2 °C 1029 hPa WSW 11.3 km/h -1607.7 km/h 54 % 0 mm 317 W/m2
15:43 16.5 °C 7.2 °C 1029 hPa WSW 11.3 km/h -1607.7 km/h 54 % 0 mm 317 W/m2
15:48 16.5 °C 7.2 °C 1029 hPa WSW 11.3 km/h -1607.7 km/h 54 % 0 mm 317 W/m2
15:53 16.4 °C 7.3 °C 1029 hPa West 12.9 km/h -1607.7 km/h 55 % 0 mm 283 W/m2
15:58 16.4 °C 7.3 °C 1029 hPa West 12.9 km/h -1607.7 km/h 55 % 0 mm 283 W/m2
16:03 16.4 °C 7.3 °C 1029 hPa West 12.9 km/h -1607.7 km/h 55 % 0 mm 283 W/m2
16:08 16.1 °C 7.6 °C 1029 hPa West 11.3 km/h -1607.7 km/h 57 % 0 mm 242 W/m2
16:13 16.1 °C 7.6 °C 1029 hPa West 11.3 km/h -1607.7 km/h 57 % 0 mm 242 W/m2
16:18 16.1 °C 7.6 °C 1029 hPa West 11.3 km/h -1607.7 km/h 57 % 0 mm 242 W/m2
16:23 16 °C 7.5 °C 1029 hPa West 12.9 km/h -1607.7 km/h 57 % 0 mm 198 W/m2
16:28 16 °C 7.5 °C 1029 hPa West 12.9 km/h -1607.7 km/h 57 % 0 mm 198 W/m2
16:33 16 °C 7.5 °C 1029 hPa West 12.9 km/h -1607.7 km/h 57 % 0 mm 198 W/m2
16:38 15.7 °C 7.7 °C 1028.7 hPa WSW 9.7 km/h -1607.7 km/h 59 % 0 mm 162 W/m2
16:43 15.7 °C 7.7 °C 1028.7 hPa WSW 9.7 km/h -1607.7 km/h 59 % 0 mm 162 W/m2
16:48 15.7 °C 7.7 °C 1028.7 hPa WSW 9.7 km/h -1607.7 km/h 59 % 0 mm 162 W/m2
16:53 15.3 °C 7.8 °C 1028.7 hPa WSW 9.7 km/h -1607.7 km/h 61 % 0 mm 118 W/m2
16:58 15.3 °C 7.8 °C 1028.7 hPa WSW 9.7 km/h -1607.7 km/h 61 % 0 mm 118 W/m2
17:03 15.3 °C 7.8 °C 1028.7 hPa WSW 9.7 km/h -1607.7 km/h 61 % 0 mm 118 W/m2
17:08 15.1 °C 7.8 °C 1028.7 hPa West 8 km/h -1607.7 km/h 62 % 0 mm 81 W/m2
17:13 15.1 °C 7.8 °C 1028.7 hPa West 8 km/h -1607.7 km/h 62 % 0 mm 81 W/m2
17:18 15.1 °C 7.8 °C 1028.7 hPa West 8 km/h -1607.7 km/h 62 % 0 mm 81 W/m2
17:23 14.8 °C 7.8 °C 1028.7 hPa West 4.8 km/h -1607.7 km/h 63 % 0 mm 58 W/m2
17:28 14.8 °C 7.8 °C 1028.7 hPa West 4.8 km/h -1607.7 km/h 63 % 0 mm 58 W/m2
17:33 14.8 °C 7.8 °C 1028.7 hPa West 4.8 km/h -1607.7 km/h 63 % 0 mm 58 W/m2
17:38 14.4 °C 7.7 °C 1028.7 hPa WSW 6.4 km/h -1607.7 km/h 64 % 0 mm 33 W/m2
17:43 14.4 °C 7.7 °C 1028.7 hPa WSW 6.4 km/h -1607.7 km/h 64 % 0 mm 33 W/m2
17:45 14.4 °C 7.7 °C 1028.7 hPa WSW 12.9 km/h 12.9 km/h 64 % 0 mm 33 W/m2
17:48 14.4 °C 7.7 °C 1028.7 hPa WSW 6.4 km/h -1607.7 km/h 64 % 0 mm 33 W/m2
17:53 14.1 °C 7.6 °C 1028.7 hPa WSW 1.6 km/h -1607.7 km/h 65 % 0 mm 18 W/m2
17:58 14.1 °C 7.6 °C 1028.7 hPa WSW 1.6 km/h -1607.7 km/h 65 % 0 mm 18 W/m2
18:03 13.9 °C 7.7 °C 1028.7 hPa Calm     66 % 0 mm 12 W/m2
18:30 13.3 °C 7.5 °C 1028.7 hPa WSW 3.2 km/h 3.2 km/h 68 % 0 mm 0 W/m2
18:40 12.6 °C 7.1 °C 1028.7 hPa Calm     69 % 0 mm 0 W/m2
18:51 12.2 °C 7.1 °C 1028.7 hPa Calm     71 % 0 mm 0 W/m2
18:56 11.8 °C 6.9 °C 1028.7 hPa Calm     72 % 0 mm 0 W/m2
19:01 11.6 °C 6.9 °C 1028.3 hPa Calm   3.2 km/h 73 % 0 mm 0 W/m2
19:06 11.5 °C 7 °C 1028.3 hPa Calm   3.2 km/h 74 % 0 mm 0 W/m2
19:12 11.4 °C 6.9 °C 1028.3 hPa Calm   3.2 km/h 74 % 0 mm 0 W/m2
19:17 11.3 °C 6.8 °C 1028.3 hPa Calm   1.6 km/h 74 % 0 mm 0 W/m2
19:22 11.1 °C 6.6 °C 1028.3 hPa Calm     74 % 0 mm 0 W/m2
19:27 10.9 °C 6.7 °C 1028.3 hPa Calm   3.2 km/h 75 % 0 mm 0 W/m2
19:32 10.8 °C 6.6 °C 1028.3 hPa Calm   3.2 km/h 75 % 0 mm 0 W/m2
19:37 10.8 °C 6.9 °C 1028 hPa Calm   3.2 km/h 77 % 0 mm 0 W/m2
19:42 10.7 °C 6.8 °C 1028.3 hPa Calm   3.2 km/h 77 % 0 mm 0 W/m2
19:47 10.6 °C 6.7 °C 1028.3 hPa Calm   1.6 km/h 77 % 0 mm 0 W/m2
19:52 10.4 °C 6.6 °C 1028.3 hPa Calm   3.2 km/h 77 % 0 mm 0 W/m2
19:57 10.2 °C 6.6 °C 1028 hPa Calm   3.2 km/h 78 % 0 mm 0 W/m2
20:02 9.9 °C 6.2 °C 1028 hPa Calm   3.2 km/h 78 % 0 mm 0 W/m2
20:07 9.8 °C 6.3 °C 1028 hPa WSW 1.6 km/h 6.4 km/h 79 % 0 mm 0 W/m2
20:12 9.7 °C 6.4 °C 1028 hPa WSW 1.6 km/h 6.4 km/h 80 % 0 mm 0 W/m2
20:17 9.6 °C 6.3 °C 1028 hPa Calm   3.2 km/h 80 % 0 mm 0 W/m2
20:22 9.5 °C 6.2 °C 1028 hPa Calm   3.2 km/h 80 % 0 mm 0 W/m2
20:27 9.4 °C 6.3 °C 1027.7 hPa Calm     81 % 0 mm 0 W/m2
20:32 9.3 °C 6.2 °C 1027.7 hPa Calm     81 % 0 mm 0 W/m2
20:37 9.2 °C 6.3 °C 1027.7 hPa Calm     82 % 0 mm 0 W/m2
20:42 9.1 °C 6.2 °C 1027.7 hPa Calm     82 % 0 mm 0 W/m2
20:47 8.9 °C 6 °C 1027.7 hPa Calm   1.6 km/h 82 % 0 mm 0 W/m2
20:52 8.8 °C 6.1 °C 1027.3 hPa Calm   3.2 km/h 83 % 0 mm 0 W/m2
20:57 8.8 °C 6.2 °C 1027.3 hPa WSW 1.6 km/h 9.7 km/h 84 % 0 mm 0 W/m2
21:02 8.8 °C 6.2 °C 1027.7 hPa WSW 1.6 km/h 9.7 km/h 84 % 0 mm 0 W/m2
21:07 8.9 °C 6.3 °C 1027.7 hPa Calm   3.2 km/h 84 % 0 mm 0 W/m2
21:12 8.9 °C 6.3 °C 1027.7 hPa Calm   4.8 km/h 84 % 0 mm 0 W/m2
21:17 9.1 °C 6.6 °C 1027.3 hPa Calm   8 km/h 84 % 0 mm 0 W/m2
21:22 9.1 °C 6.6 °C 1027.3 hPa Calm   8 km/h 84 % 0 mm 0 W/m2
21:27 9.1 °C 6.4 °C 1027.3 hPa SW 1.6 km/h 6.4 km/h 83 % 0 mm 0 W/m2
21:32 9.1 °C 6.4 °C 1027.3 hPa WSW 3.2 km/h 9.7 km/h 83 % 0 mm 0 W/m2
21:37 9.1 °C 6.4 °C 1027.3 hPa WSW 4.8 km/h 9.7 km/h 83 % 0 mm 0 W/m2
21:42 9.1 °C 6.6 °C 1027.3 hPa West 6.4 km/h 12.9 km/h 84 % 0 mm 0 W/m2
21:47 9.2 °C 6.6 °C 1027.3 hPa West 8 km/h 12.9 km/h 84 % 0 mm 0 W/m2
21:52 9.3 °C 6.7 °C 1027.3 hPa West 9.7 km/h 12.9 km/h 84 % 0 mm 0 W/m2
21:57 9.5 °C 6.9 °C 1027 hPa WSW 9.7 km/h 12.9 km/h 84 % 0 mm 0 W/m2
22:02 9.7 °C 6.9 °C 1027 hPa WSW 8 km/h 14.5 km/h 83 % 0 mm 0 W/m2
22:07 9.8 °C 6.9 °C 1027 hPa WSW 8 km/h 14.5 km/h 82 % 0 mm 0 W/m2
22:12 9.9 °C 6.9 °C 1027 hPa WSW 9.7 km/h 16.1 km/h 82 % 0 mm 0 W/m2
22:13 10 °C 7.1 °C 1027 hPa WSW 11.3 km/h 16.1 km/h 82 % 0 mm 0 W/m2
22:18 10.2 °C 7.3 °C 1027 hPa SW 12.9 km/h 20.9 km/h 82 % 0 mm 0 W/m2
22:23 10.4 °C 7.3 °C 1027 hPa SW 12.9 km/h 20.9 km/h 81 % 0 mm 0 W/m2
22:28 10.5 °C 7.2 °C 1027 hPa SW 12.9 km/h 20.9 km/h 80 % 0 mm 0 W/m2
22:33 10.5 °C 7.2 °C 1027 hPa SW 11.3 km/h 17.7 km/h 80 % 0 mm 0 W/m2
22:38 10.6 °C 7.3 °C 1026.6 hPa WSW 9.7 km/h 17.7 km/h 80 % 0 mm 0 W/m2
22:43 10.5 °C 7.2 °C 1026.6 hPa WSW 8 km/h 14.5 km/h 80 % 0 mm 0 W/m2
22:48 10.4 °C 7.1 °C 1026.6 hPa WSW 4.8 km/h 14.5 km/h 80 % 0 mm 0 W/m2
22:53 10.3 °C 7 °C 1026.6 hPa SSW 3.2 km/h 16.1 km/h 80 % 0 mm 0 W/m2
22:58 10.2 °C 6.9 °C 1026.6 hPa South 4.8 km/h 16.1 km/h 80 % 0 mm 0 W/m2
23:03 10.1 °C 6.8 °C 1026.6 hPa South 1.6 km/h 9.7 km/h 80 % 0 mm 0 W/m2
23:08 9.9 °C 6.6 °C 1026.3 hPa SSW 1.6 km/h 8 km/h 80 % 0 mm 0 W/m2
23:14 9.8 °C 6.7 °C 1026.3 hPa SW 3.2 km/h 11.3 km/h 81 % 0 mm 0 W/m2
23:19 9.7 °C 6.6 °C 1026.3 hPa WSW 6.4 km/h 12.9 km/h 81 % 0 mm 0 W/m2
23:24 9.8 °C 6.9 °C 1026.3 hPa WSW 8 km/h 12.9 km/h 82 % 0 mm 0 W/m2
23:29 10 °C 6.9 °C 1026.3 hPa SW 8 km/h 12.9 km/h 81 % 0 mm 0 W/m2
23:34 10 °C 6.9 °C 1026.3 hPa SW 6.4 km/h 11.3 km/h 81 % 0 mm 0 W/m2
23:39 10.1 °C 6.8 °C 1026.3 hPa SW 4.8 km/h 9.7 km/h 80 % 0 mm 0 W/m2
23:44 10 °C 6.7 °C 1026 hPa SSW 1.6 km/h 8 km/h 80 % 0 mm 0 W/m2
23:49 9.9 °C 6.6 °C 1026 hPa Calm   6.4 km/h 80 % 0 mm 0 W/m2
23:54 9.7 °C 6.6 °C 1026 hPa South 1.6 km/h 6.4 km/h 81 % 0 mm 0 W/m2
23:59 9.7 °C 6.6 °C 1025.6 hPa South 1.6 km/h 8 km/h 81 % 0 mm 0 W/m2
Delerius-Weather
Compliments of Weather Underground - 2.25 mb

Data updates at regular intervals.